• Join FlightAware (Why Join?)
  • Login
  • US Flag 
01:11PM EDT


 

Airport Tracker/Info


-or-


 

Live Flight TrackerFlight Track Log ✈ N589H ✈ 04-Mar-2014 ✈ KPIE - KSFB

Flight Track Log - Related Links

Times and Time Zones

All times are in EST time to prevent confusion due to time zone crossing. See the N589H flight status page for this flight to view local times or setup timezone preferences in your user account.

Time Position Orientation Groundspeed Altitude Reporting Facility
EST Latitude Longitude Course Direction KTS MPH feet Rate Location/Type
05:11AM 27.9333 -82.6833 270° West 164 189 600  Level Tampa TRACON
05:11AM 27.9333 -82.7000 270° West 165 190 700 1,620 Climbing Tampa TRACON
05:12AM 27.9833 -82.7000 360° North 189 217 2,400 1,680 Climbing Tampa TRACON
05:13AM 28.0333 -82.6833 16° North 217 250 4,100 1,680 Climbing Tampa TRACON
05:14AM 28.0667 -82.6333 53° Northeast 234 269 5,900 1,740 Climbing Tampa TRACON
05:15AM 28.1000 -82.5667 60° Northeast 240 276 7,600 1,500 Climbing Tampa TRACON
05:16AM 28.1333 -82.5000 60° Northeast 246 283 8,900 660 Climbing Tampa TRACON
05:17AM 28.1833 -82.4167 56° Northeast 302 348 9,000  Climbing Tampa TRACON
05:18AM 28.2167 -82.3333 66° East 308 354 9,000  Level Tampa TRACON
05:19AM 28.2667 -82.2500 56° Northeast 305 351 9,000  Level Tampa TRACON
05:21AM 28.3500 -82.0833 60° Northeast 306 352 9,000  Level Orlando TRACON
05:22AM 28.4000 -82.0000 56° Northeast 306 352 9,000  Level Orlando TRACON
05:23AM 28.4333 -81.9167 66° East 309 356 9,000 -300 Level Orlando TRACON
05:24AM 28.4833 -81.8333 56° Northeast 307 353 8,500 -600 Descending Orlando TRACON
05:25AM 28.5167 -81.7500 66° East 300 345 7,800 -720 Descending Orlando TRACON
05:26AM 28.5667 -81.6833 49° Northeast 296 341 7,100 -780 Descending Orlando TRACON
05:27AM 28.6500 -81.6500 19° North 284 327 6,300 -900 Descending Orlando TRACON
05:28AM 28.7167 -81.6167 24° Northeast 274 315 5,300 -1,260 Descending Orlando TRACON
05:29AM 28.7833 -81.5833 24° Northeast 272 313 3,800 -960 Descending Orlando TRACON
05:30AM 28.8000 -81.5000 77° East 254 292 3,400 -240 Descending Orlando TRACON
05:31AM 28.7833 -81.4333 106° East 224 258 3,400  Level Orlando TRACON